Time;durP1;ratioP1;P1;durP2;ratioP2;P2;SDS_P1;SDS_P2;PMS_P1;PMS_P2;Temp;Humidity;BMP_temperature;BMP_pressure;BME280_temperature;BME280_humidity;BME280_pressure;Samples;Min_cycle;Max_cycle;Signal;HPM_P1;HPM_P2
2024/01/31 00:00:32;;;;;;;7.35;5.32;;;22.80;32.50;;;;;;5031614;28;20216;-58
2024/01/31 00:03:00;;;;;;;8.52;5.93;;;22.70;32.40;;;;;;5031831;28;20193;-56
2024/01/31 00:05:27;;;;;;;11.70;5.70;;;22.70;32.40;;;;;;5031769;28;20223;-58
2024/01/31 00:07:54;;;;;;;9.05;5.60;;;22.70;32.40;;;;;;5031508;28;20195;-59
2024/01/31 00:10:21;;;;;;;8.10;5.93;;;22.70;32.40;;;;;;5031801;28;20303;-57
2024/01/31 00:12:48;;;;;;;8.77;5.72;;;22.70;32.30;;;;;;5033698;28;20271;-57
2024/01/31 00:15:16;;;;;;;9.23;5.90;;;22.70;32.40;;;;;;5034985;28;20319;-56
2024/01/31 00:17:44;;;;;;;8.93;5.68;;;22.70;32.30;;;;;;5035284;28;20654;-58
2024/01/31 00:20:13;;;;;;;7.80;5.63;;;22.80;32.20;;;;;;5034945;28;20255;-55
2024/01/31 00:22:40;;;;;;;9.90;5.47;;;22.80;32.20;;;;;;5034522;28;20188;-57
2024/01/31 00:25:07;;;;;;;8.35;5.78;;;22.90;32.30;;;;;;5035186;28;20304;-57
2024/01/31 00:27:34;;;;;;;10.10;6.00;;;22.80;32.20;;;;;;5035056;28;20745;-55
2024/01/31 00:30:01;;;;;;;10.55;5.78;;;22.80;32.20;;;;;;5034782;28;20216;-58
2024/01/31 00:32:28;;;;;;;9.10;5.65;;;22.90;32.30;;;;;;5035042;28;20220;-58
2024/01/31 00:34:56;;;;;;;8.20;5.68;;;22.80;32.10;;;;;;5034761;28;20239;-57
2024/01/31 00:37:23;;;;;;;8.48;5.20;;;22.90;32.10;;;;;;5034869;28;20287;-58
2024/01/31 00:39:50;;;;;;;7.38;5.25;;;22.90;32.10;;;;;;5034803;28;20303;-55
2024/01/31 00:42:17;;;;;;;10.02;5.75;;;22.90;32.10;;;;;;5034907;28;20280;-58
2024/01/31 00:44:44;;;;;;;10.18;5.45;;;22.90;32.10;;;;;;5034478;28;20252;-58
2024/01/31 00:47:11;;;;;;;8.27;5.15;;;22.90;32.10;;;;;;5034751;28;20280;-57
2024/01/31 00:49:38;;;;;;;8.13;5.75;;;22.90;32.00;;;;;;5034563;28;20239;-57
2024/01/31 00:52:07;;;;;;;7.40;5.07;;;22.90;32.00;;;;;;5034432;28;20223;-56
2024/01/31 00:54:34;;;;;;;7.45;5.18;;;22.90;31.80;;;;;;5034452;28;20235;-58
2024/01/31 00:57:01;;;;;;;9.43;5.93;;;22.90;31.90;;;;;;5034576;28;20267;-59
2024/01/31 00:59:28;;;;;;;7.15;5.35;;;22.90;31.80;;;;;;5034140;28;20191;-58
2024/01/31 01:01:55;;;;;;;8.90;5.55;;;22.90;32.00;;;;;;5034346;28;20214;-59
2024/01/31 01:04:21;;;;;;;7.32;5.35;;;22.80;32.00;;;;;;5034334;28;20192;-53
2024/01/31 01:06:48;;;;;;;8.90;5.25;;;22.80;32.10;;;;;;5034027;28;20267;-58
2024/01/31 01:09:17;;;;;;;8.13;5.30;;;22.70;32.00;;;;;;5034175;28;20277;-58
2024/01/31 01:11:44;;;;;;;7.97;5.28;;;22.70;32.00;;;;;;5034300;28;20280;-59
2024/01/31 01:14:10;;;;;;;7.53;5.53;;;22.70;32.10;;;;;;5033834;28;20212;-58
2024/01/31 01:16:37;;;;;;;8.30;5.72;;;22.70;32.00;;;;;;5034407;28;20298;-57
2024/01/31 01:19:04;;;;;;;10.10;5.95;;;22.60;31.90;;;;;;5034150;28;20219;-58
2024/01/31 01:21:33;;;;;;;7.53;5.30;;;22.70;32.00;;;;;;5033747;28;20248;-58
2024/01/31 01:24:00;;;;;;;9.75;5.70;;;22.70;32.00;;;;;;5033026;28;20189;-57
2024/01/31 01:26:29;;;;;;;7.90;5.93;;;22.70;32.00;;;;;;5033852;28;20724;-58
2024/01/31 01:28:55;;;;;;;7.68;5.40;;;22.70;32.00;;;;;;5033894;28;20199;-58
2024/01/31 01:31:22;;;;;;;7.82;4.82;;;22.80;32.00;;;;;;5034022;28;20631;-54
2024/01/31 01:33:49;;;;;;;9.75;6.18;;;22.80;32.00;;;;;;5033423;28;20565;-59
2024/01/31 01:36:16;;;;;;;8.68;5.57;;;22.80;31.90;;;;;;5033394;28;20327;-54
2024/01/31 01:38:43;;;;;;;11.23;5.75;;;22.80;31.90;;;;;;5033730;28;20185;-58
2024/01/31 01:41:10;;;;;;;9.57;6.30;;;22.80;31.90;;;;;;5033741;28;20299;-57
2024/01/31 01:43:42;;;;;;;7.45;5.60;;;22.80;31.80;;;;;;5033307;28;20192;-56
2024/01/31 01:46:11;;;;;;;7.28;5.18;;;22.90;31.90;;;;;;5033576;28;20263;-57
2024/01/31 01:48:39;;;;;;;8.32;5.47;;;22.90;31.80;;;;;;5033438;28;20323;-59
2024/01/31 01:51:07;;;;;;;8.50;5.53;;;22.90;31.80;;;;;;5033111;28;20776;-58
2024/01/31 01:53:36;;;;;;;8.98;5.68;;;22.90;31.80;;;;;;5033562;28;20196;-57
2024/01/31 01:56:05;;;;;;;9.85;5.28;;;22.90;31.70;;;;;;5033119;28;20698;-56
2024/01/31 01:58:32;;;;;;;7.95;5.28;;;22.90;31.70;;;;;;5032998;28;20200;-58
2024/01/31 02:01:01;;;;;;;9.02;5.25;;;22.90;31.60;;;;;;5033533;28;20216;-57
2024/01/31 02:03:30;;;;;;;9.20;5.45;;;22.90;31.60;;;;;;5033355;28;20199;-57
2024/01/31 02:05:58;;;;;;;7.28;5.32;;;22.90;31.60;;;;;;5032778;28;20224;-59
2024/01/31 02:08:27;;;;;;;8.23;5.53;;;22.90;31.60;;;;;;5032917;28;20363;-59
2024/01/31 02:10:54;;;;;;;8.32;5.22;;;22.90;31.60;;;;;;5032873;28;20216;-58
2024/01/31 02:13:21;;;;;;;6.47;4.95;;;22.80;31.60;;;;;;5032833;28;20310;-54
2024/01/31 02:15:52;;;;;;;7.82;5.07;;;22.80;31.70;;;;;;5032772;28;20579;-58
2024/01/31 02:18:21;;;;;;;7.05;4.88;;;22.70;31.80;;;;;;5033231;28;20275;-57
2024/01/31 02:20:48;;;;;;;7.70;5.10;;;22.70;31.80;;;;;;5031237;28;20585;-56
2024/01/31 02:23:17;;;;;;;7.13;4.85;;;22.60;31.70;;;;;;5036787;28;20192;-53
2024/01/31 02:25:45;;;;;;;8.52;5.05;;;22.60;31.70;;;;;;5052902;28;20303;-57
2024/01/31 02:28:12;;;;;;;7.80;4.68;;;22.60;31.70;;;;;;5052572;28;20188;-58
2024/01/31 02:30:39;;;;;;;6.22;4.25;;;22.60;31.60;;;;;;5052858;28;20212;-58
2024/01/31 02:33:06;;;;;;;8.05;4.57;;;22.60;31.60;;;;;;5052672;28;20291;-58
2024/01/31 02:35:34;;;;;;;5.78;4.43;;;22.60;31.60;;;;;;5051606;28;20693;-58
2024/01/31 02:38:01;;;;;;;6.57;4.32;;;22.70;31.60;;;;;;5052346;28;20579;-58
2024/01/31 02:40:30;;;;;;;7.85;3.95;;;22.80;31.60;;;;;;5052114;28;20215;-56
2024/01/31 02:42:57;;;;;;;7.07;3.70;;;22.80;31.60;;;;;;5052169;28;20661;-58
2024/01/31 02:45:24;;;;;;;6.88;4.18;;;22.80;31.60;;;;;;5052241;28;20307;-58
2024/01/31 02:47:51;;;;;;;5.78;3.60;;;22.70;31.40;;;;;;5052443;28;20286;-59
2024/01/31 02:50:18;;;;;;;5.40;3.80;;;22.80;31.50;;;;;;5051755;28;20236;-58
2024/01/31 02:52:45;;;;;;;6.93;3.72;;;22.80;31.50;;;;;;5052567;28;20191;-57
2024/01/31 02:55:12;;;;;;;6.25;3.78;;;22.80;31.40;;;;;;5052338;28;20623;-57
2024/01/31 02:57:41;;;;;;;5.85;3.85;;;22.80;31.40;;;;;;5052156;28;20192;-58
2024/01/31 03:00:11;;;;;;;6.57;3.53;;;22.80;31.30;;;;;;5052339;28;20223;-58
2024/01/31 03:02:39;;;;;;;5.60;3.90;;;22.80;31.30;;;;;;5052295;28;20188;-59
2024/01/31 03:05:07;;;;;;;5.40;3.80;;;22.90;31.30;;;;;;5051663;28;20230;-57
2024/01/31 03:07:34;;;;;;;6.65;3.60;;;22.90;31.20;;;;;;5052251;28;20198;-58
2024/01/31 03:10:01;;;;;;;7.40;3.53;;;22.90;31.20;;;;;;5052189;28;20303;-57
2024/01/31 03:12:28;;;;;;;6.20;3.80;;;22.90;31.10;;;;;;5051608;28;20188;-58
2024/01/31 03:14:56;;;;;;;5.05;3.30;;;22.90;31.10;;;;;;5052132;28;20233;-58
2024/01/31 03:17:23;;;;;;;4.68;3.00;;;22.80;31.00;;;;;;5051945;28;20673;-59
2024/01/31 03:19:50;;;;;;;6.10;3.05;;;22.80;31.00;;;;;;5051749;28;20302;-58
2024/01/31 03:22:17;;;;;;;5.95;3.88;;;22.80;31.20;;;;;;5052113;28;20283;-57
2024/01/31 03:24:44;;;;;;;4.20;3.00;;;22.70;31.10;;;;;;5052065;28;20305;-55
2024/01/31 03:27:11;;;;;;;4.63;3.22;;;22.70;31.20;;;;;;5051875;28;20188;-59
2024/01/31 03:29:38;;;;;;;5.93;3.33;;;22.60;31.20;;;;;;5051992;28;20192;-59
2024/01/31 03:32:07;;;;;;;6.20;3.25;;;22.60;31.30;;;;;;5052084;28;20184;-58
2024/01/31 03:34:34;;;;;;;5.78;3.50;;;22.60;31.20;;;;;;5051206;28;20194;-58
2024/01/31 03:37:04;;;;;;;4.22;3.10;;;22.60;31.30;;;;;;5052002;28;20188;-58
2024/01/31 03:39:31;;;;;;;5.18;2.78;;;22.60;31.20;;;;;;5051832;28;20561;-59
2024/01/31 03:41:58;;;;;;;7.05;2.95;;;22.60;31.20;;;;;;5051331;28;20188;-58
2024/01/31 03:44:25;;;;;;;5.90;3.17;;;22.60;31.10;;;;;;5051890;28;20188;-59
2024/01/31 03:46:52;;;;;;;7.05;3.15;;;22.60;31.00;;;;;;5052741;28;20271;-58
2024/01/31 03:49:20;;;;;;;4.90;3.08;;;22.70;31.80;;;;;;5055212;28;20609;-58
2024/01/31 03:51:48;;;;;;;5.93;3.25;;;22.70;31.10;;;;;;5055800;28;20314;-59
2024/01/31 03:54:15;;;;;;;5.07;2.92;;;22.70;31.10;;;;;;5055416;28;20183;-58
2024/01/31 03:56:42;;;;;;;5.10;2.88;;;22.70;31.10;;;;;;5055371;28;20235;-58
2024/01/31 03:59:10;;;;;;;4.55;2.60;;;22.70;31.00;;;;;;5055660;28;20275;-59
2024/01/31 04:01:36;;;;;;;3.55;2.63;;;22.70;31.00;;;;;;5055683;28;20286;-57
2024/01/31 04:04:04;;;;;;;4.82;2.65;;;22.70;31.00;;;;;;5055301;28;20198;-57
2024/01/31 04:06:32;;;;;;;6.03;2.58;;;22.70;31.00;;;;;;5055449;28;20228;-57
2024/01/31 04:08:59;;;;;;;4.75;3.00;;;22.80;31.60;;;;;;5055298;28;20192;-57
2024/01/31 04:11:34;;;;;;;4.25;2.53;;;22.80;30.90;;;;;;5055200;28;20221;-57
2024/01/31 04:14:01;;;;;;;5.28;2.85;;;22.80;30.80;;;;;;5055213;28;20708;-58
2024/01/31 04:16:27;;;;;;;4.85;2.72;;;22.80;30.80;;;;;;5055375;28;20239;-57
2024/01/31 04:18:55;;;;;;;4.93;2.20;;;22.80;31.40;;;;;;5054856;28;20198;-59
2024/01/31 04:21:22;;;;;;;5.43;2.95;;;22.80;30.70;;;;;;5054893;28;20215;-56
2024/01/31 04:23:50;;;;;;;3.92;2.45;;;22.80;30.70;;;;;;5055099;28;20188;-53
2024/01/31 04:26:17;;;;;;;4.03;2.38;;;22.80;30.70;;;;;;5054867;28;20225;-58
2024/01/31 04:28:44;;;;;;;4.00;2.67;;;22.70;30.60;;;;;;5055112;28;20188;-57
2024/01/31 04:31:15;;;;;;;7.93;2.70;;;22.70;30.70;;;;;;5055091;28;20583;-57
2024/01/31 04:33:42;;;;;;;5.45;2.60;;;22.60;30.70;;;;;;5054197;28;20572;-59
2024/01/31 04:36:10;;;;;;;4.78;2.78;;;22.60;30.80;;;;;;5054837;28;20318;-55
2024/01/31 04:38:37;;;;;;;4.70;2.47;;;22.60;30.80;;;;;;5054790;28;20194;-59
2024/01/31 04:41:05;;;;;;;4.43;2.40;;;22.50;30.80;;;;;;5054423;28;20258;-57
2024/01/31 04:43:32;;;;;;;5.40;2.75;;;22.50;30.80;;;;;;5054440;28;20772;-59
2024/01/31 04:45:59;;;;;;;4.22;2.47;;;22.50;30.80;;;;;;5054796;28;20216;-59
2024/01/31 04:48:26;;;;;;;3.17;2.42;;;22.50;30.80;;;;;;5054127;28;20234;-56
2024/01/31 04:50:53;;;;;;;5.10;2.80;;;22.50;30.70;;;;;;5054727;28;20306;-58
2024/01/31 04:53:20;;;;;;;4.80;2.58;;;22.60;30.80;;;;;;5054697;28;20282;-58
2024/01/31 04:55:47;;;;;;;3.53;2.30;;;22.60;30.70;;;;;;5054140;28;20230;-58
2024/01/31 04:58:15;;;;;;;3.83;2.38;;;22.60;30.70;;;;;;5054325;28;20188;-57
2024/01/31 05:00:42;;;;;;;4.03;2.28;;;22.60;30.70;;;;;;5054115;28;20302;-58
2024/01/31 05:03:09;;;;;;;4.35;2.42;;;22.60;30.70;;;;;;5053789;28;20278;-55
2024/01/31 05:05:37;;;;;;;6.05;2.38;;;22.70;30.70;;;;;;5054620;28;20306;-57
2024/01/31 05:08:05;;;;;;;5.28;2.47;;;22.60;30.60;;;;;;5054243;28;20270;-56
2024/01/31 05:10:34;;;;;;;4.57;2.40;;;22.70;30.70;;;;;;5053879;28;20298;-58
2024/01/31 05:13:01;;;;;;;4.20;2.38;;;22.70;30.70;;;;;;5054137;28;20190;-55
2024/01/31 05:15:30;;;;;;;3.22;2.17;;;22.70;30.60;;;;;;5054102;28;20234;-56
2024/01/31 05:17:58;;;;;;;3.92;2.53;;;22.70;30.60;;;;;;5053461;28;20619;-59
2024/01/31 05:20:25;;;;;;;4.60;2.28;;;22.70;30.50;;;;;;5054002;28;20226;-58
2024/01/31 05:22:52;;;;;;;3.90;2.05;;;22.80;30.50;;;;;;5053911;28;20192;-55
2024/01/31 05:25:19;;;;;;;3.80;2.03;;;22.80;31.20;;;;;;5053674;28;20219;-56
2024/01/31 05:27:46;;;;;;;6.65;2.60;;;22.80;30.50;;;;;;5053938;28;20271;-59
2024/01/31 05:30:14;;;;;;;3.85;2.33;;;22.80;30.50;;;;;;5053747;28;20306;-58
2024/01/31 05:32:45;;;;;;;3.05;2.20;;;22.70;30.40;;;;;;5053487;28;20184;-56
2024/01/31 05:35:12;;;;;;;6.80;2.20;;;22.70;30.40;;;;;;5053406;28;20301;-57
2024/01/31 05:37:39;;;;;;;3.10;2.13;;;22.70;30.50;;;;;;5053664;28;20266;-58
2024/01/31 05:40:08;;;;;;;6.60;2.05;;;22.60;30.50;;;;;;5053042;28;20245;-59
2024/01/31 05:42:35;;;;;;;4.03;1.90;;;22.60;30.50;;;;;;5053772;28;20191;-58
2024/01/31 05:45:02;;;;;;;3.63;2.17;;;22.60;30.50;;;;;;5053521;28;20306;-56
2024/01/31 05:47:29;;;;;;;3.72;2.30;;;22.60;30.60;;;;;;5052949;28;20653;-59
2024/01/31 05:49:58;;;;;;;2.58;1.90;;;22.50;30.50;;;;;;5053396;28;20275;-58
2024/01/31 05:52:25;;;;;;;5.00;2.30;;;22.50;30.50;;;;;;5053696;28;20198;-58
2024/01/31 05:54:52;;;;;;;4.80;1.92;;;22.50;31.20;;;;;;5052678;28;20230;-57
2024/01/31 05:57:19;;;;;;;4.20;2.20;;;22.60;30.60;;;;;;5053283;28;20220;-56
2024/01/31 05:59:46;;;;;;;4.72;2.17;;;22.60;30.50;;;;;;5053230;28;20188;-59
2024/01/31 06:02:13;;;;;;;4.13;2.20;;;22.60;30.50;;;;;;5052924;28;20271;-59
2024/01/31 06:04:41;;;;;;;4.00;1.90;;;22.60;30.50;;;;;;5053160;28;20279;-57
2024/01/31 06:07:10;;;;;;;4.03;2.13;;;22.70;30.60;;;;;;5053410;28;20199;-56
2024/01/31 06:09:37;;;;;;;3.03;2.03;;;22.60;30.50;;;;;;5051881;28;20654;-55
2024/01/31 06:12:05;;;;;;;5.40;2.15;;;22.60;30.50;;;;;;5053123;28;20199;-57
2024/01/31 06:14:35;;;;;;;4.28;2.08;;;22.70;30.50;;;;;;5052756;28;20841;-58
2024/01/31 06:17:03;;;;;;;4.85;2.08;;;22.70;30.50;;;;;;5052275;28;20219;-58
2024/01/31 06:19:30;;;;;;;4.78;1.98;;;22.70;30.50;;;;;;5052908;28;20188;-58
2024/01/31 06:21:57;;;;;;;3.72;2.03;;;22.80;30.50;;;;;;5052695;28;20215;-57
2024/01/31 06:24:25;;;;;;;4.63;2.08;;;22.80;30.50;;;;;;5052196;28;20642;-58
2024/01/31 06:26:52;;;;;;;3.08;1.73;;;22.70;30.40;;;;;;5053033;28;20304;-57
2024/01/31 06:29:19;;;;;;;2.92;1.65;;;22.70;30.30;;;;;;5052758;28;20276;-58
2024/01/31 06:31:51;;;;;;;2.97;1.77;;;22.70;30.30;;;;;;5052775;28;20222;-59
2024/01/31 06:34:18;;;;;;;2.35;1.70;;;22.80;30.30;;;;;;5052686;28;20196;-58
2024/01/31 06:36:46;;;;;;;6.80;2.00;;;22.80;30.30;;;;;;5052590;28;20238;-56
2024/01/31 06:39:13;;;;;;;3.10;1.77;;;22.80;30.30;;;;;;5052208;28;20271;-57
2024/01/31 06:41:41;;;;;;;3.03;1.88;;;22.70;30.30;;;;;;5052650;28;20302;-58
2024/01/31 06:44:08;;;;;;;4.38;2.00;;;22.70;30.30;;;;;;5052576;28;20195;-55
2024/01/31 06:46:35;;;;;;;3.63;1.73;;;22.60;30.30;;;;;;5051873;28;20696;-59
2024/01/31 06:49:02;;;;;;;3.72;1.90;;;22.60;30.40;;;;;;5052170;28;20311;-59
2024/01/31 06:51:29;;;;;;;4.28;1.85;;;22.50;30.40;;;;;;5052650;28;20273;-59
2024/01/31 06:53:58;;;;;;;3.58;2.00;;;22.50;31.20;;;;;;5052011;28;20202;-59
2024/01/31 06:56:25;;;;;;;2.75;1.70;;;22.50;30.40;;;;;;5052546;28;20231;-59
2024/01/31 06:58:55;;;;;;;3.10;1.80;;;22.50;30.50;;;;;;5052355;28;20275;-59
2024/01/31 07:01:21;;;;;;;3.67;1.90;;;22.50;30.40;;;;;;5052192;28;20322;-58
2024/01/31 07:03:48;;;;;;;3.05;1.75;;;22.60;30.50;;;;;;5052327;28;20199;-58
2024/01/31 07:06:16;;;;;;;3.00;1.80;;;22.60;31.10;;;;;;5052307;28;20221;-58
2024/01/31 07:08:43;;;;;;;3.85;1.70;;;22.60;30.40;;;;;;5051854;28;20188;-58
2024/01/31 07:11:10;;;;;;;3.40;1.88;;;22.60;30.40;;;;;;5052268;28;20318;-58
2024/01/31 07:13:37;;;;;;;2.92;1.92;;;22.60;30.40;;;;;;5052306;28;20535;-59
2024/01/31 07:16:09;;;;;;;3.47;1.75;;;22.60;30.40;;;;;;5051795;28;20231;-56
2024/01/31 07:18:36;;;;;;;3.70;2.10;;;22.60;30.40;;;;;;5051770;28;20700;-58
2024/01/31 07:21:03;;;;;;;4.70;2.17;;;22.60;30.30;;;;;;5052215;28;20303;-59
2024/01/31 07:23:30;;;;;;;3.60;1.70;;;22.60;30.30;;;;;;5054830;28;20202;-58
2024/01/31 07:25:57;;;;;;;3.13;1.88;;;22.70;30.40;;;;;;5056264;28;20214;-57
2024/01/31 07:28:24;;;;;;;6.28;1.90;;;22.70;31.00;;;;;;5056170;28;20194;-57
2024/01/31 07:30:52;;;;;;;3.60;1.95;;;22.70;30.30;;;;;;5055641;28;20225;-57
2024/01/31 07:33:20;;;;;;;3.55;1.77;;;22.80;30.40;;;;;;5056114;28;20241;-58
2024/01/31 07:35:47;;;;;;;4.30;2.03;;;22.80;30.30;;;;;;5054643;28;20312;-59
2024/01/31 07:38:14;;;;;;;3.88;1.70;;;22.80;30.30;;;;;;5055594;28;20233;-58
2024/01/31 07:40:41;;;;;;;3.38;1.50;;;22.80;30.30;;;;;;5055860;28;20306;-59
2024/01/31 07:43:08;;;;;;;4.65;1.70;;;22.80;30.20;;;;;;5051212;28;20567;-57
2024/01/31 07:45:35;;;;;;;6.22;1.80;;;22.80;30.20;;;;;;5055256;28;20227;-58
2024/01/31 07:48:02;;;;;;;3.70;1.40;;;22.70;30.20;;;;;;5049169;28;20208;-58
2024/01/31 07:50:30;;;;;;;4.78;1.67;;;22.70;30.20;;;;;;5055421;28;20226;-58
2024/01/31 07:52:57;;;;;;;4.32;1.80;;;22.60;30.20;;;;;;5054988;28;20200;-57
2024/01/31 07:55:24;;;;;;;4.10;2.00;;;22.60;30.30;;;;;;5052627;28;20604;-59
2024/01/31 07:57:51;;;;;;;3.40;2.05;;;22.60;30.50;;;;;;5054200;28;20625;-59
2024/01/31 08:00:19;;;;;;;5.05;1.80;;;22.50;30.50;;;;;;5028347;28;20254;-57
2024/01/31 08:02:46;;;;;;;2.63;1.85;;;22.50;30.50;;;;;;5050734;28;20498;-57
2024/01/31 08:05:13;;;;;;;4.85;2.38;;;22.50;31.00;;;;;;5046321;28;20225;-58
2024/01/31 08:07:45;;;;;;;3.17;2.10;;;22.50;31.10;;;;;;5051800;28;20199;-56
2024/01/31 08:10:13;;;;;;;6.40;2.40;;;22.50;31.10;;;;;;5047691;28;20247;-58
2024/01/31 08:12:40;;;;;;;7.40;2.00;;;22.50;31.40;;;;;;5042742;28;20284;-54
2024/01/31 08:15:10;;;;;;;6.50;1.92;;;22.60;31.50;;;;;;5047219;28;20306;-57
2024/01/31 08:17:37;;;;;;;6.15;2.20;;;22.60;31.50;;;;;;5045958;28;20299;-58
2024/01/31 08:20:06;;;;;;;8.35;2.05;;;22.60;31.80;;;;;;5050081;28;20202;-58
2024/01/31 08:22:33;;;;;;;4.30;2.03;;;22.60;31.80;;;;;;5049227;28;20200;-59
2024/01/31 08:25:01;;;;;;;9.07;2.13;;;22.70;31.70;;;;;;5049296;28;20291;-58
2024/01/31 08:27:28;;;;;;;7.15;2.20;;;22.60;31.60;;;;;;5049445;28;20199;-57
2024/01/31 08:29:55;;;;;;;10.10;2.10;;;22.70;31.80;;;;;;5049621;28;20206;-56
2024/01/31 08:32:22;;;;;;;9.10;2.15;;;22.70;31.80;;;;;;5049650;28;20279;-55
2024/01/31 08:34:49;;;;;;;6.07;1.90;;;22.80;32.10;;;;;;5050214;28;20199;-52
2024/01/31 08:37:16;;;;;;;4.68;1.73;;;22.80;32.30;;;;;;5050083;28;20402;-56
2024/01/31 08:39:43;;;;;;;8.98;1.70;;;22.80;32.40;;;;;;5050189;28;20716;-57
2024/01/31 08:42:13;;;;;;;5.70;1.88;;;22.80;32.60;;;;;;5050204;28;20232;-55
2024/01/31 08:44:40;;;;;;;7.25;1.80;;;22.90;32.90;;;;;;5049861;28;20279;-57
2024/01/31 08:47:07;;;;;;;6.25;1.77;;;22.90;32.70;;;;;;5049741;28;20222;-53
2024/01/31 08:49:34;;;;;;;8.07;1.67;;;22.80;32.60;;;;;;5050123;28;20227;-57
2024/01/31 08:52:01;;;;;;;7.88;2.08;;;22.80;32.50;;;;;;5050792;28;20222;-58
2024/01/31 08:54:28;;;;;;;6.18;2.05;;;22.70;32.50;;;;;;5046482;28;20188;-54
2024/01/31 08:56:55;;;;;;;5.00;1.80;;;22.70;32.50;;;;;;5049132;28;20227;-55
2024/01/31 08:59:23;;;;;;;13.77;1.70;;;22.70;32.70;;;;;;5049756;28;20184;-55
2024/01/31 09:01:51;;;;;;;5.95;2.00;;;22.70;32.70;;;;;;5047221;28;20223;-56
2024/01/31 09:04:18;;;;;;;13.98;1.90;;;22.70;32.90;;;;;;5049477;28;20191;-59
2024/01/31 09:06:45;;;;;;;6.50;2.10;;;22.70;32.90;;;;;;5048936;28;20220;-59
2024/01/31 09:09:12;;;;;;;6.95;2.00;;;22.60;32.80;;;;;;5048754;28;20369;-56
2024/01/31 09:11:39;;;;;;;6.25;1.98;;;22.60;32.70;;;;;;5051182;28;20835;-57
2024/01/31 09:14:06;;;;;;;6.95;2.10;;;22.70;32.70;;;;;;5050653;28;20188;-58
2024/01/31 09:16:35;;;;;;;6.05;1.92;;;22.60;32.60;;;;;;5048860;28;20231;-59
2024/01/31 09:19:03;;;;;;;7.20;2.33;;;22.60;32.70;;;;;;5049744;28;20199;-58
2024/01/31 09:21:31;;;;;;;7.13;1.88;;;22.70;32.80;;;;;;5051390;28;20314;-52
2024/01/31 09:23:58;;;;;;;5.97;1.77;;;22.80;32.90;;;;;;5046732;28;20196;-55
2024/01/31 09:26:25;;;;;;;17.00;2.35;;;22.80;32.90;;;;;;5049585;28;20298;-58
2024/01/31 09:28:52;;;;;;;14.32;2.20;;;22.90;33.00;;;;;;5051088;28;20267;-57
2024/01/31 09:31:23;;;;;;;8.77;1.83;;;22.80;32.80;;;;;;5046692;28;20316;-58
2024/01/31 09:33:53;;;;;;;12.77;2.15;;;22.90;32.90;;;;;;5049741;28;20288;-57
2024/01/31 09:36:20;;;;;;;9.60;1.90;;;22.90;32.90;;;;;;5050637;28;20215;-56
2024/01/31 09:38:48;;;;;;;5.30;2.20;;;22.90;32.80;;;;;;5051522;28;20279;-55
2024/01/31 09:41:16;;;;;;;7.32;1.98;;;22.90;32.80;;;;;;5049347;28;20230;-54
2024/01/31 09:43:43;;;;;;;10.25;2.08;;;22.90;32.80;;;;;;5050438;28;20192;-57
2024/01/31 09:46:11;;;;;;;11.35;2.30;;;23.00;32.90;;;;;;5048438;28;20709;-54
2024/01/31 09:48:38;;;;;;;9.45;2.15;;;23.00;32.90;;;;;;5050377;28;20227;-55
2024/01/31 09:51:08;;;;;;;21.23;1.95;;;23.00;32.90;;;;;;5049217;28;20223;-51
2024/01/31 09:53:36;;;;;;;6.38;1.90;;;23.00;32.90;;;;;;5048959;28;20206;-52
2024/01/31 09:56:04;;;;;;;9.48;2.05;;;23.00;33.00;;;;;;5048448;28;20217;-53
2024/01/31 09:58:31;;;;;;;7.80;1.75;;;23.00;33.10;;;;;;5043496;28;20259;-52
2024/01/31 10:01:02;;;;;;;7.78;1.80;;;23.00;32.90;;;;;;5038069;28;20223;-57
2024/01/31 10:03:30;;;;;;;6.97;2.00;;;23.00;32.90;;;;;;5042239;28;20567;-53
2024/01/31 10:06:03;;;;;;;13.43;1.85;;;22.90;32.80;;;;;;5045826;28;20226;-56
2024/01/31 10:08:31;;;;;;;7.13;2.03;;;22.90;33.00;;;;;;5046861;28;20199;-54
2024/01/31 10:11:01;;;;;;;8.48;2.10;;;22.90;33.00;;;;;;5043634;28;20215;-56
2024/01/31 10:13:30;;;;;;;7.15;2.13;;;22.90;33.00;;;;;;4994707;28;20253;-56
2024/01/31 10:18:43;;;;;;;7.32;1.73;;;22.80;32.90;;;;;;4998347;28;20241;-56
2024/01/31 10:21:12;;;;;;;10.85;2.20;;;22.90;33.00;;;;;;5010570;28;20243;-56
2024/01/31 10:23:45;;;;;;;38.75;2.30;;;22.80;33.00;;;;;;5048730;28;20211;-54
2024/01/31 10:26:14;;;;;;;5.05;1.83;;;22.80;32.90;;;;;;5016957;28;20230;-55
2024/01/31 10:28:42;;;;;;;4.97;1.80;;;22.80;33.00;;;;;;5014159;28;20607;-56
2024/01/31 10:31:24;;;;;;;5.60;1.90;;;22.80;33.00;;;;;;5043446;28;20277;-54
2024/01/31 10:33:53;;;;;;;7.68;2.00;;;22.80;33.10;;;;;;5047052;28;20211;-56
2024/01/31 10:36:23;;;;;;;13.52;2.00;;;22.80;33.20;;;;;;4991506;28;20307;-54
2024/01/31 10:38:54;;;;;;;14.18;1.70;;;22.90;33.30;;;;;;5052310;28;20212;-56
2024/01/31 10:41:24;;;;;;;5.63;2.10;;;22.90;33.20;;;;;;5042381;28;20254;-56
2024/01/31 10:44:00;;;;;;;7.15;2.05;;;23.00;33.20;;;;;;5028708;28;20337;-54
2024/01/31 10:46:30;;;;;;;8.75;2.50;;;23.00;33.00;;;;;;5046872;28;20311;-56
2024/01/31 10:49:01;;;;;;;6.05;2.00;;;23.00;33.10;;;;;;5027224;28;20274;-55
2024/01/31 10:51:31;;;;;;;11.30;2.33;;;22.90;33.00;;;;;;5047434;28;20280;-53
2024/01/31 10:54:02;;;;;;;9.20;2.55;;;22.90;33.00;;;;;;5041375;28;20664;-55
2024/01/31 10:56:31;;;;;;;10.75;2.10;;;22.90;33.00;;;;;;5046020;28;20250;-52
2024/01/31 10:58:58;;;;;;;10.05;2.40;;;22.90;33.20;;;;;;5033305;28;20346;-55
2024/01/31 11:01:30;;;;;;;13.35;2.85;;;22.90;33.20;;;;;;5028906;28;20310;-53
2024/01/31 11:03:57;;;;;;;9.57;2.33;;;23.00;33.40;;;;;;5046129;28;20206;-56
2024/01/31 11:06:24;;;;;;;8.27;2.45;;;23.00;33.40;;;;;;5047402;28;20211;-54
2024/01/31 11:08:52;;;;;;;9.80;2.25;;;23.00;33.30;;;;;;5043723;28;20201;-55
2024/01/31 11:11:21;;;;;;;9.73;2.00;;;23.00;33.30;;;;;;5043528;28;20318;-54
2024/01/31 11:13:48;;;;;;;8.73;2.45;;;23.00;33.20;;;;;;5047245;28;20195;-54
2024/01/31 11:16:24;;;;;;;7.30;2.13;;;22.90;33.20;;;;;;5044533;28;20648;-55
2024/01/31 11:18:52;;;;;;;4.88;2.30;;;22.90;33.20;;;;;;5046643;28;20740;-56
2024/01/31 11:21:19;;;;;;;6.20;2.25;;;22.90;33.20;;;;;;5044175;28;20221;-56
2024/01/31 11:23:47;;;;;;;4.97;2.15;;;22.90;33.20;;;;;;5047565;28;20199;-54
2024/01/31 11:26:14;;;;;;;8.38;2.05;;;22.80;33.20;;;;;;5046185;28;20531;-56
2024/01/31 11:28:43;;;;;;;5.57;1.90;;;22.80;33.20;;;;;;5046421;28;20202;-54
2024/01/31 11:31:10;;;;;;;6.95;2.30;;;22.80;33.20;;;;;;5046379;28;20227;-56
2024/01/31 11:33:37;;;;;;;7.68;2.00;;;22.80;33.30;;;;;;5046578;28;20192;-55
2024/01/31 11:36:05;;;;;;;8.93;2.20;;;22.80;33.30;;;;;;5046122;28;20246;-56
2024/01/31 11:38:32;;;;;;;7.43;2.30;;;22.80;33.20;;;;;;5046310;28;20782;-55
2024/01/31 11:41:00;;;;;;;3.33;1.83;;;22.80;33.30;;;;;;5045380;28;20313;-55
2024/01/31 11:43:26;;;;;;;8.02;2.60;;;22.90;33.30;;;;;;5045864;28;20187;-55
2024/01/31 11:45:55;;;;;;;5.20;2.10;;;22.90;33.20;;;;;;5043998;28;20219;-56
2024/01/31 11:48:23;;;;;;;5.60;2.13;;;22.90;33.20;;;;;;5046478;28;20207;-55
2024/01/31 11:50:49;;;;;;;7.75;2.55;;;22.90;33.10;;;;;;5046312;28;20257;-56
2024/01/31 11:53:16;;;;;;;4.82;2.10;;;22.90;33.10;;;;;;5045424;28;20208;-56
2024/01/31 11:55:43;;;;;;;9.48;2.30;;;23.00;33.20;;;;;;5045272;28;20689;-56
2024/01/31 11:58:11;;;;;;;8.43;2.05;;;23.00;33.20;;;;;;5047898;28;20215;-54
2024/01/31 12:00:38;;;;;;;7.93;2.13;;;23.00;33.10;;;;;;5047396;28;20188;-55
2024/01/31 12:03:07;;;;;;;5.13;1.90;;;23.10;33.20;;;;;;5048391;28;20267;-55
2024/01/31 12:05:34;;;;;;;6.72;2.10;;;23.10;33.10;;;;;;5038041;28;20200;-56
2024/01/31 12:08:01;;;;;;;7.43;2.20;;;23.10;33.00;;;;;;5045187;28;20285;-55
2024/01/31 12:10:29;;;;;;;8.15;1.92;;;23.10;33.10;;;;;;5047927;28;20214;-56
2024/01/31 12:12:57;;;;;;;5.20;1.83;;;23.10;33.00;;;;;;5051051;28;20191;-56
2024/01/31 12:15:24;;;;;;;5.15;1.85;;;23.10;33.70;;;;;;5053738;28;20188;-53
2024/01/31 12:17:51;;;;;;;6.13;2.03;;;23.10;33.20;;;;;;5052257;28;20359;-56
2024/01/31 12:20:20;;;;;;;9.93;2.38;;;23.10;33.20;;;;;;5049670;28;20183;-55
2024/01/31 12:22:47;;;;;;;7.28;2.00;;;23.10;33.20;;;;;;5048883;28;20220;-56
2024/01/31 12:25:14;;;;;;;5.25;2.03;;;23.10;33.90;;;;;;5049982;28;20206;-54
2024/01/31 12:27:41;;;;;;;6.43;1.92;;;23.10;33.20;;;;;;5049106;28;20230;-54
2024/01/31 12:30:09;;;;;;;3.17;1.77;;;23.10;33.20;;;;;;5051172;28;20198;-56
2024/01/31 12:32:36;;;;;;;5.15;1.85;;;23.10;33.30;;;;;;5050821;28;20212;-56
2024/01/31 12:35:03;;;;;;;7.95;1.65;;;23.00;33.90;;;;;;5050335;28;20191;-55
2024/01/31 12:37:31;;;;;;;3.72;1.60;;;23.00;33.30;;;;;;5049872;28;20245;-52
2024/01/31 12:39:58;;;;;;;5.75;1.80;;;23.00;33.40;;;;;;5050772;28;20626;-55
2024/01/31 12:42:25;;;;;;;7.93;1.92;;;22.90;33.40;;;;;;5050810;28;20215;-54
2024/01/31 12:44:52;;;;;;;3.60;1.65;;;23.00;33.50;;;;;;5049615;28;20278;-55
2024/01/31 12:47:19;;;;;;;5.43;1.80;;;22.90;34.20;;;;;;5047951;28;20226;-53
2024/01/31 12:49:46;;;;;;;5.93;1.85;;;23.00;33.60;;;;;;5048491;28;20306;-55